METAR Data
IDs: Format: Raw Decoded Include TAF

Data at: 2300 UTC 23 Oct 2019

METAR for:KIAH (Houston/Bush Intl, TX, US)
Text:KIAH 232253Z 13016G23KT 10SM FEW060 23/12 A3003 RMK AO2 SLP169 T02330122
Temperature: 23.3°C ( 74°F)
Dewpoint: 12.2°C ( 54°F) [RH = 50%]
Pressure (altimeter):30.03 inches Hg (1017.0 mb) [Sea level pressure: 1016.9 mb]
Winds:from the SE (130 degrees) at 18 MPH (16 knots; 8.2 m/s) gusting to 26 MPH (23 knots; 11.8 m/s)
Visibility:10 or more sm (16+ km)
Ceiling:at least 12,000 feet AGL
Clouds: few clouds at 6000 feet AGL

METAR for:KHOU (Houston/Hobby Arpt, TX, US)
Text:KHOU 232253Z 13014KT 10SM FEW045 24/13 A3002 RMK AO2 SLP172 T02440128
Temperature: 24.4°C ( 76°F)
Dewpoint: 12.8°C ( 55°F) [RH = 48%]
Pressure (altimeter):30.02 inches Hg (1016.7 mb) [Sea level pressure: 1017.2 mb]
Winds:from the SE (130 degrees) at 16 MPH (14 knots; 7.2 m/s)
Visibility:10 or more sm (16+ km)
Ceiling:at least 12,000 feet AGL
Clouds: few clouds at 4500 feet AGL

METAR for:KGLS (Galveston/Scholes In, TX, US)
Text:KGLS 232252Z AUTO 12013KT 10SM CLR 25/14 A3004 RMK AO2 SLP173 T02500144
Temperature: 25.0°C ( 77°F)
Dewpoint: 14.4°C ( 58°F) [RH = 52%]
Pressure (altimeter):30.04 inches Hg (1017.4 mb) [Sea level pressure: 1017.3 mb]
Winds:from the ESE (120 degrees) at 15 MPH (13 knots; 6.7 m/s)
Visibility:10 or more sm (16+ km)
Ceiling:at least 12,000 feet AGL
Clouds:sky clear below 12,000 feet AGL
QC Flag:automated observation with no human augmentation

METAR for:KLVJ (Houston/Pearland Rgn, TX, US)
Text:KLVJ 232253Z AUTO 12013KT 10SM CLR 25/13 A3005 RMK AO2 SLP173 T02500128
Temperature: 25.0°C ( 77°F)
Dewpoint: 12.8°C ( 55°F) [RH = 47%]
Pressure (altimeter):30.05 inches Hg (1017.7 mb) [Sea level pressure: 1017.3 mb]
Winds:from the ESE (120 degrees) at 15 MPH (13 knots; 6.7 m/s)
Visibility:10 or more sm (16+ km)
Ceiling:at least 12,000 feet AGL
Clouds:sky clear below 12,000 feet AGL
QC Flag:automated observation with no human augmentation

METAR for:KSGR (Houston/Sugar Land R, TX, US)
Text:KSGR 232253Z 13014G21KT 10SM CLR 25/14 A3002 RMK AO2 SLP166 T02500144
Temperature: 25.0°C ( 77°F)
Dewpoint: 14.4°C ( 58°F) [RH = 52%]
Pressure (altimeter):30.02 inches Hg (1016.7 mb) [Sea level pressure: 1016.6 mb]
Winds:from the SE (130 degrees) at 16 MPH (14 knots; 7.2 m/s) gusting to 24 MPH (21 knots; 10.8 m/s)
Visibility:10 or more sm (16+ km)
Ceiling:at least 12,000 feet AGL
Clouds:sky clear below 12,000 feet AGL

METAR for:KDWH (Houston/Hooks Mem, TX, US)
Text:KDWH 232253Z 13011G20KT 10SM CLR 23/12 A3002 RMK AO2 SLP163 T02330122
Temperature: 23.3°C ( 74°F)
Dewpoint: 12.2°C ( 54°F) [RH = 50%]
Pressure (altimeter):30.02 inches Hg (1016.7 mb) [Sea level pressure: 1016.3 mb]
Winds:from the SE (130 degrees) at 13 MPH (11 knots; 5.7 m/s) gusting to 23 MPH (20 knots; 10.3 m/s)
Visibility:10 or more sm (16+ km)
Ceiling:at least 12,000 feet AGL
Clouds:sky clear below 12,000 feet AGL

METAR for:KCLL (College Station/East, TX, US)
Text:KCLL 232253Z 15015G23KT 10SM FEW070 27/12 A2997 RMK AO2 PK WND 15026/2233 SLP145 T02720122
Temperature: 27.2°C ( 81°F)
Dewpoint: 12.2°C ( 54°F) [RH = 39%]
Pressure (altimeter):29.97 inches Hg (1015.0 mb) [Sea level pressure: 1014.5 mb]
Winds:from the SSE (150 degrees) at 17 MPH (15 knots; 7.7 m/s) gusting to 26 MPH (23 knots; 11.8 m/s)
Visibility:10 or more sm (16+ km)
Ceiling:at least 12,000 feet AGL
Clouds: few clouds at 7000 feet AGL

METAR for:KUTS (Huntsville Muni, TX, US)
Text:KUTS 232253Z AUTO VRB05KT 10SM CLR 25/11 A3001 RMK AO2 SLP159 T02500106
Temperature: 25.0°C ( 77°F)
Dewpoint: 10.6°C ( 51°F) [RH = 40%]
Pressure (altimeter):30.01 inches Hg (1016.3 mb) [Sea level pressure: 1015.9 mb]
Winds:variable direction winds at 6 MPH (5 knots; 2.6 m/s)
Visibility:10 or more sm (16+ km)
Ceiling:at least 12,000 feet AGL
Clouds:sky clear below 12,000 feet AGL
QC Flag:automated observation with no human augmentation

METAR for:KCXO (Conroe/Executive Arp, TX, US)
Text:KCXO 232253Z 14013G18KT 10SM CLR 23/12 A3003 RMK AO2 SLP166 T02330122
Temperature: 23.3°C ( 74°F)
Dewpoint: 12.2°C ( 54°F) [RH = 50%]
Pressure (altimeter):30.03 inches Hg (1017.0 mb) [Sea level pressure: 1016.6 mb]
Winds:from the SE (140 degrees) at 15 MPH (13 knots; 6.7 m/s) gusting to 21 MPH (18 knots; 9.3 m/s)
Visibility:10 or more sm (16+ km)
Ceiling:at least 12,000 feet AGL
Clouds:sky clear below 12,000 feet AGL

METAR for:KLBX (Angleton/Texas Gulf, TX, US)
Text:KLBX 232253Z AUTO 13009KT 10SM CLR 25/16 A3002 RMK AO2 SLP166 T02500156
Temperature: 25.0°C ( 77°F)
Dewpoint: 15.6°C ( 60°F) [RH = 56%]
Pressure (altimeter):30.02 inches Hg (1016.7 mb) [Sea level pressure: 1016.6 mb]
Winds:from the SE (130 degrees) at 10 MPH (9 knots; 4.6 m/s)
Visibility:10 or more sm (16+ km)
Ceiling:at least 12,000 feet AGL
Clouds:sky clear below 12,000 feet AGL
QC Flag:automated observation with no human augmentation

METAR for:KPSX (Palacios Muni, TX, US)
Text:KPSX 232253Z AUTO 13014G20KT 10SM CLR 27/16 A2999 RMK AO2 SLP155 T02670161
Temperature: 26.7°C ( 80°F)
Dewpoint: 16.1°C ( 61°F) [RH = 52%]
Pressure (altimeter):29.99 inches Hg (1015.7 mb) [Sea level pressure: 1015.5 mb]
Winds:from the SE (130 degrees) at 16 MPH (14 knots; 7.2 m/s) gusting to 23 MPH (20 knots; 10.3 m/s)
Visibility:10 or more sm (16+ km)
Ceiling:at least 12,000 feet AGL
Clouds:sky clear below 12,000 feet AGL
QC Flag:automated observation with no human augmentation